Terminal Aerodrome Forecast
Issued by NWS

Home | Current Version | Previous Version | Text Only | Print | Product List | Glossary On
Versions: 1 2 3 4 5 6 7 8 9 10 11 12 13 14 15 16 17 18 19 20 21
524
FTUS41 KBGM 231130
TAFITH
TAF
KITH 231130Z 2312/2412 16012G22KT P6SM -RA OVC035 WS020/19035KT
      TEMPO 2312/2315 3SM RA BR OVC015
     FM231700 24010KT P6SM -SHRA OVC035
     FM240200 27012G22KT P6SM -SHSN OVC025
      TEMPO 2408/2412 2SM -SHSN OVC015=

USA.gov is the U.S. government's official web portal to all federal, state and local government web resources and services.